Church Fenton, United Kingdom
Current Conditions -  °F | °C
As of 2:50 AM on Sunday 25 Jan 2015 (Local Time) from EGXU Reporting Station
Overcast Overcast  
Wind Chill: 36°   Ceiling: 7000
Heat Index: 39°   Visibility: 6mi
Dew Point: 34°   Wind: 5mph
Humidity: 81%   Direction: 160°SSE
Pressure: 30.33"   Gusts: NA
Location:  53.83°N, 1.2°W
Report Text: EGXU 250250Z AUTO 16004KT 9999 // FEW024/// OVC070/// 04/01 Q1027
Loading
Personal Weather Stations






























Interactive Weather Map New forecast layout! Learn more

10-Day Weather Forecast

Advertisements
Track Severe Weather on mobile